Time;durP1;ratioP1;P1;durP2;ratioP2;P2;SDS_P1;SDS_P2;PMS_P1;PMS_P2;Temp;Humidity;BMP_temperature;BMP_pressure;BME280_temperature;BME280_humidity;BME280_pressure;Samples;Min_cycle;Max_cycle;Signal;HPM_P1;HPM_P2
2021/05/10 00:02:20;;;;;;;10.65;7.80;;;;;;;4.61;71.65;101837.20;1778188;80;21069;-74
2021/05/10 00:04:49;;;;;;;16.05;9.23;;;;;;;4.59;71.39;101829.42;1778372;80;21471;-75
2021/05/10 00:07:18;;;;;;;17.10;8.33;;;;;;;4.59;71.33;101832.02;1778466;80;22290;-75
2021/05/10 00:09:46;;;;;;;13.85;9.00;;;;;;;4.59;71.30;101830.72;1778379;80;20962;-75
2021/05/10 00:12:14;;;;;;;12.63;9.05;;;;;;;4.58;71.25;101831.62;1778463;79;21017;-74
2021/05/10 00:14:44;;;;;;;16.05;10.05;;;;;;;4.57;71.16;101833.78;1778368;80;21431;-74
2021/05/10 00:17:14;;;;;;;16.32;7.75;;;;;;;4.55;71.31;101835.54;1778407;80;21021;-73
2021/05/10 00:19:43;;;;;;;11.22;8.03;;;;;;;4.52;70.79;101835.15;1778487;79;21018;-73
2021/05/10 00:22:12;;;;;;;12.25;8.38;;;;;;;4.51;71.39;101836.05;1778495;80;21022;-73
2021/05/10 00:24:42;;;;;;;11.15;7.95;;;;;;;4.52;71.64;101833.85;1778321;79;20970;-74
2021/05/10 00:27:12;;;;;;;16.23;7.90;;;;;;;4.52;71.74;101829.95;1778508;80;20946;-74
2021/05/10 00:29:41;;;;;;;10.90;6.78;;;;;;;4.55;71.79;101836.84;1778563;80;21014;-75
2021/05/10 00:32:09;;;;;;;17.15;8.55;;;;;;;4.56;71.61;101835.52;1778474;79;21507;-74
2021/05/10 00:34:38;;;;;;;10.95;7.78;;;;;;;4.58;71.27;101839.41;1778540;80;20963;-75
2021/05/10 00:37:06;;;;;;;9.60;6.80;;;;;;;4.55;71.30;101844.19;1778534;80;21519;-75
2021/05/10 00:39:34;;;;;;;14.43;7.22;;;;;;;4.52;71.19;101840.34;1778640;80;20986;-74
2021/05/10 00:42:02;;;;;;;7.40;6.50;;;;;;;4.50;70.58;101843.85;1778619;80;20934;-74
2021/05/10 00:44:30;;;;;;;10.50;6.87;;;;;;;4.49;70.93;101846.90;1778983;80;22650;-74
2021/05/10 00:46:58;;;;;;;11.63;8.08;;;;;;;4.49;71.33;101848.20;1778571;80;20958;-74
2021/05/10 00:49:27;;;;;;;15.15;8.10;;;;;;;4.51;71.56;101849.45;1778615;79;20922;-74
2021/05/10 00:51:55;;;;;;;9.85;7.50;;;;;;;4.50;71.61;101842.11;1778616;79;20978;-75
2021/05/10 00:54:23;;;;;;;12.03;7.55;;;;;;;4.53;71.69;101844.64;1778627;79;21014;-75
2021/05/10 00:56:51;;;;;;;13.48;8.53;;;;;;;4.55;71.46;101844.63;1778664;80;22311;-75
2021/05/10 00:59:19;;;;;;;14.03;8.25;;;;;;;4.55;71.33;101844.63;1778448;80;20942;-74
2021/05/10 01:01:47;;;;;;;15.65;7.83;;;;;;;4.53;71.20;101845.94;1779183;80;20942;-74
2021/05/10 01:04:15;;;;;;;12.88;9.78;;;;;;;4.49;71.00;101847.31;1780728;80;20982;-74
2021/05/10 01:06:43;;;;;;;11.55;8.10;;;;;;;4.46;71.05;101846.08;1780740;80;21096;-74
2021/05/10 01:09:11;;;;;;;10.90;6.62;;;;;;;4.45;71.26;101850.41;1780605;80;21345;-75
2021/05/10 01:11:39;;;;;;;14.83;7.37;;;;;;;4.40;71.33;101843.11;1781471;79;20919;-71
2021/05/10 01:14:08;;;;;;;11.75;7.00;;;;;;;4.37;71.39;101843.17;1754368;79;20934;-73
2021/05/10 01:16:36;;;;;;;12.18;7.83;;;;;;;4.36;71.51;101842.31;1778669;79;21570;-73
2021/05/10 01:19:05;;;;;;;9.03;6.42;;;;;;;4.35;71.75;101843.63;1778733;80;21389;-73
2021/05/10 01:21:33;;;;;;;14.47;7.03;;;;;;;4.32;71.82;101844.98;1778733;80;21130;-74
2021/05/10 01:24:01;;;;;;;12.93;8.23;;;;;;;4.33;71.96;101848.83;1752805;80;21061;-73
2021/05/10 01:26:30;;;;;;;11.30;7.30;;;;;;;4.32;72.11;101848.43;1753071;80;20958;-74
2021/05/10 01:28:58;;;;;;;10.90;7.20;;;;;;;4.31;72.02;101840.23;1778791;80;20938;-74
2021/05/10 01:31:27;;;;;;;11.80;7.03;;;;;;;4.30;72.16;101848.89;1778561;79;20918;-73
2021/05/10 01:33:54;;;;;;;13.22;7.58;;;;;;;4.29;72.08;101854.98;1778497;80;21304;-73
2021/05/10 01:36:23;;;;;;;11.80;7.17;;;;;;;4.27;72.01;101850.24;1778429;79;21018;-73
2021/05/10 01:38:51;;;;;;;11.12;5.58;;;;;;;4.25;72.00;101854.59;1778441;79;20975;-74
2021/05/10 01:41:20;;;;;;;9.90;6.65;;;;;;;4.27;72.06;101859.75;1778432;80;20899;-74
2021/05/10 01:43:48;;;;;;;11.80;6.78;;;;;;;4.28;72.02;101863.63;1778490;80;20887;-74
2021/05/10 01:46:17;;;;;;;9.43;6.95;;;;;;;4.29;72.08;101854.09;1778454;80;21364;-74
2021/05/10 01:48:46;;;;;;;10.82;6.87;;;;;;;4.30;72.00;101859.27;1778536;80;21359;-72
2021/05/10 01:51:14;;;;;;;9.48;6.45;;;;;;;4.29;71.89;101861.47;1778491;79;21014;-73
2021/05/10 01:53:46;;;;;;;8.35;6.47;;;;;;;4.25;71.71;101861.53;1778445;80;21001;-72
2021/05/10 01:56:15;;;;;;;8.33;6.75;;;;;;;4.20;71.76;101862.86;1778516;80;20986;-74
2021/05/10 01:58:56;;;;;;;8.70;6.42;;;;;;;4.14;71.60;101865.56;1774489;80;21409;-74
2021/05/10 02:01:24;;;;;;;8.48;5.97;;;;;;;4.11;71.64;101870.36;1770037;79;20914;-73
2021/05/10 02:03:53;;;;;;;12.10;6.25;;;;;;;4.07;72.07;101869.98;1770040;81;20986;-73
2021/05/10 02:06:21;;;;;;;14.28;6.90;;;;;;;4.07;72.29;101873.87;1769939;81;21018;-75
2021/05/10 02:08:51;;;;;;;15.20;8.63;;;;;;;4.06;72.17;101877.33;1770028;79;21015;-73
2021/05/10 02:11:20;;;;;;;13.30;8.15;;;;;;;4.07;71.89;101880.78;1770009;81;21199;-73
2021/05/10 02:13:48;;;;;;;13.25;6.97;;;;;;;4.06;71.88;101880.38;1769935;81;21364;-74
2021/05/10 02:16:16;;;;;;;9.83;7.08;;;;;;;4.03;71.83;101888.20;1770044;81;20951;-74
2021/05/10 02:18:45;;;;;;;9.95;5.95;;;;;;;3.99;72.01;101890.42;1770014;81;21024;-76
2021/05/10 02:21:13;;;;;;;8.80;5.40;;;;;;;3.95;72.38;101886.55;1770070;81;21006;-74
2021/05/10 02:23:42;;;;;;;9.25;5.25;;;;;;;3.94;72.28;101896.52;1750527;81;21397;-74
2021/05/10 02:26:10;;;;;;;8.18;5.45;;;;;;;3.93;72.48;101888.73;1770002;79;20943;-74
2021/05/10 02:28:39;;;;;;;8.88;5.72;;;;;;;3.92;72.61;101896.12;1769873;81;20951;-73
2021/05/10 02:31:07;;;;;;;12.13;5.20;;;;;;;3.92;72.70;101893.08;1769934;81;20946;-74
2021/05/10 02:33:36;;;;;;;8.08;5.30;;;;;;;3.91;72.64;101899.16;1769972;81;20963;-74
2021/05/10 02:36:05;;;;;;;9.75;6.33;;;;;;;3.94;72.69;101893.07;1770024;81;21400;-74
2021/05/10 02:38:33;;;;;;;11.57;5.97;;;;;;;3.95;72.67;101898.22;1769910;81;20979;-73
2021/05/10 02:41:02;;;;;;;14.58;7.17;;;;;;;3.95;72.36;101904.70;1769894;81;20999;-73
2021/05/10 02:43:30;;;;;;;11.60;6.10;;;;;;;3.93;72.42;101898.70;1769900;81;21412;-73
2021/05/10 02:45:59;;;;;;;12.75;5.67;;;;;;;3.90;72.42;101903.91;1769970;81;20947;-72
2021/05/10 02:48:27;;;;;;;9.03;5.83;;;;;;;3.87;72.24;101910.45;1769939;81;21437;-74
2021/05/10 02:50:55;;;;;;;10.32;6.05;;;;;;;3.84;72.18;101904.42;1769991;81;21030;-74
2021/05/10 02:53:24;;;;;;;7.75;5.25;;;;;;;3.79;72.19;101912.26;1769986;81;21030;-74
2021/05/10 02:55:52;;;;;;;8.28;5.45;;;;;;;3.73;72.57;101911.02;1769900;81;21442;-75
2021/05/10 02:58:20;;;;;;;9.30;5.87;;;;;;;3.73;72.52;101909.72;1770183;80;21073;-75
2021/05/10 03:00:48;;;;;;;7.17;5.12;;;;;;;3.74;72.71;101911.02;1769998;81;21383;-75
2021/05/10 03:03:17;;;;;;;7.03;5.62;;;;;;;3.77;72.69;101917.05;1769894;79;20951;-74
2021/05/10 03:05:45;;;;;;;9.05;5.78;;;;;;;3.81;72.85;101923.48;1769949;81;21006;-74
2021/05/10 03:08:13;;;;;;;7.28;5.12;;;;;;;3.86;72.68;101915.20;1769974;81;21119;-75
2021/05/10 03:10:41;;;;;;;7.67;5.42;;;;;;;3.91;72.77;101922.93;1769897;81;21041;-74
2021/05/10 03:13:09;;;;;;;7.05;5.00;;;;;;;3.96;73.06;101921.16;1769951;81;21380;-75
2021/05/10 03:15:37;;;;;;;6.40;5.22;;;;;;;4.05;73.21;101921.50;1769880;80;21364;-74
2021/05/10 03:18:06;;;;;;;9.65;5.15;;;;;;;4.23;73.71;101921.27;1769868;79;20943;-73
2021/05/10 03:20:35;;;;;;;4.90;3.70;;;;;;;4.48;73.74;101923.09;1750789;81;21397;-75
2021/05/10 03:23:04;;;;;;;8.60;5.10;;;;;;;4.70;72.42;101927.99;1769929;81;20986;-74
2021/05/10 03:25:34;;;;;;;10.38;4.92;;;;;;;4.89;72.47;101933.34;1769909;79;21345;-74
2021/05/10 03:28:03;;;;;;;7.87;4.58;;;;;;;5.04;72.33;101930.08;1769919;81;20974;-74
2021/05/10 03:30:32;;;;;;;7.33;3.75;;;;;;;5.13;71.86;101926.02;1769899;81;21018;-75
2021/05/10 03:33:00;;;;;;;6.45;4.60;;;;;;;5.20;71.13;101932.83;1769867;80;20883;-75
2021/05/10 03:35:28;;;;;;;7.50;4.30;;;;;;;5.27;70.51;101936.19;1769961;79;20927;-74
2021/05/10 03:37:56;;;;;;;4.72;4.15;;;;;;;5.31;70.24;101935.26;1769891;79;21356;-74
2021/05/10 03:40:24;;;;;;;6.22;4.08;;;;;;;5.35;70.40;101939.08;1769802;79;21014;-73
2021/05/10 03:42:53;;;;;;;8.03;3.33;;;;;;;5.38;70.08;101933.84;1769902;81;20955;-73
2021/05/10 03:45:21;;;;;;;5.78;4.05;;;;;;;5.44;69.53;101928.11;1769864;79;21073;-72
2021/05/10 03:47:49;;;;;;;4.15;3.75;;;;;;;5.52;68.75;101935.34;1769947;81;21468;-74
2021/05/10 03:50:21;;;;;;;8.50;4.05;;;;;;;5.59;68.34;101940.40;1769871;81;21366;-72
2021/05/10 03:52:50;;;;;;;7.45;3.52;;;;;;;5.73;68.11;101932.33;1769892;81;20958;-72
2021/05/10 03:55:21;;;;;;;11.85;3.37;;;;;;;5.92;68.01;101928.95;1769839;79;20938;-73
2021/05/10 03:57:49;;;;;;;6.55;4.05;;;;;;;6.19;67.38;101931.92;1769876;81;20927;-71
2021/05/10 04:00:18;;;;;;;4.47;4.05;;;;;;;6.47;66.75;101935.23;1776315;79;20927;-72
2021/05/10 04:02:46;;;;;;;6.10;4.08;;;;;;;6.73;65.87;101935.52;1778392;80;21367;-75
2021/05/10 04:15:59;;;;;;;3.77;2.83;;;;;;;9.00;60.09;101949.83;1784121;79;21482;-74
2021/05/10 04:18:27;;;;;;;5.30;3.35;;;;;;;9.71;57.97;101941.78;1784092;79;21190;-71
2021/05/10 04:20:56;;;;;;;3.72;2.83;;;;;;;10.33;56.65;101945.22;1784055;80;20930;-73
2021/05/10 04:23:26;;;;;;;3.60;3.05;;;;;;;10.94;54.35;101945.08;1784119;80;20938;-72
2021/05/10 04:25:55;;;;;;;3.92;2.62;;;;;;;11.50;52.70;101941.02;1784068;79;20899;-75
2021/05/10 04:28:23;;;;;;;3.98;2.52;;;;;;;12.04;51.22;101939.55;1784129;79;20934;-72
2021/05/10 04:30:52;;;;;;;3.60;3.05;;;;;;;12.56;49.96;101937.16;1784195;79;21198;-71
2021/05/10 04:33:32;;;;;;;4.45;2.62;;;;;;;13.06;49.52;101932.53;1784080;79;21593;-73
2021/05/10 04:36:00;;;;;;;2.75;2.55;;;;;;;13.57;47.86;101930.02;1784091;80;20994;-74
2021/05/10 04:38:30;;;;;;;2.50;2.30;;;;;;;14.35;44.04;101929.43;1784034;79;21037;-73
2021/05/10 04:40:59;;;;;;;2.70;2.50;;;;;;;14.57;43.34;101926.49;1784234;80;21345;-73
2021/05/10 04:43:27;;;;;;;3.45;2.47;;;;;;;14.57;43.34;101926.49;1784114;80;21368;-73
2021/05/10 04:45:59;;;;;;;2.40;2.20;;;;;;;14.89;42.81;101925.50;1784033;80;20952;-74
2021/05/10 04:48:27;;;;;;;1.75;1.65;;;;;;;15.28;41.93;101925.94;1784093;80;20942;-74
2021/05/10 04:50:56;;;;;;;2.20;2.00;;;;;;;15.67;41.66;101925.36;1784148;79;20930;-73
2021/05/10 04:53:24;;;;;;;3.17;2.75;;;;;;;16.05;40.69;101922.18;1784213;80;21352;-73
2021/05/10 04:55:52;;;;;;;1.90;1.80;;;;;;;16.42;39.19;101921.64;1784079;80;21140;-73
2021/05/10 04:58:20;;;;;;;3.33;1.90;;;;;;;16.76;39.25;101922.95;1784749;80;20998;-73
2021/05/10 05:00:48;;;;;;;3.92;2.92;;;;;;;17.08;38.39;101925.34;1784898;80;20938;-72
2021/05/10 05:03:16;;;;;;;4.15;2.37;;;;;;;17.42;38.34;101921.73;1784897;80;20946;-74
2021/05/10 05:05:44;;;;;;;3.12;1.98;;;;;;;17.78;37.81;101919.17;1784760;80;20930;-72
2021/05/10 05:08:12;;;;;;;2.50;2.30;;;;;;;18.13;36.19;101921.19;1786260;79;21372;-74
2021/05/10 05:10:40;;;;;;;3.05;2.35;;;;;;;18.42;35.20;101920.42;1784103;80;20938;-75
2021/05/10 05:13:08;;;;;;;2.65;2.42;;;;;;;18.59;34.61;101918.37;1779732;79;21053;-73
2021/05/10 05:15:37;;;;;;;5.33;2.52;;;;;;;18.81;34.43;101913.69;1779040;80;21364;-74
2021/05/10 05:18:06;;;;;;;1.80;1.70;;;;;;;19.02;33.18;101909.89;1779125;79;20899;-73
2021/05/10 05:20:37;;;;;;;3.05;1.50;;;;;;;19.21;33.43;101912.86;1779075;79;21346;-73
2021/05/10 05:23:08;;;;;;;2.37;1.80;;;;;;;19.50;33.41;101908.91;1778722;80;20946;-76
2021/05/10 05:25:36;;;;;;;1.98;1.77;;;;;;;19.80;32.85;101904.39;1752276;80;20971;-73
2021/05/10 05:28:06;;;;;;;2.10;1.82;;;;;;;20.12;33.00;101912.95;1778584;79;21301;-71
2021/05/10 05:30:34;;;;;;;4.50;1.72;;;;;;;20.34;31.39;101901.42;1778568;80;22383;-69
2021/05/10 05:33:03;;;;;;;2.00;1.85;;;;;;;20.47;31.78;101909.62;1778597;80;22126;-69
2021/05/10 05:35:31;;;;;;;2.17;1.40;;;;;;;20.69;30.91;101908.74;1778536;79;21018;-68
2021/05/10 05:37:59;;;;;;;2.00;1.82;;;;;;;20.87;29.84;101910.86;1778581;80;21586;-69
2021/05/10 05:40:27;;;;;;;3.45;2.10;;;;;;;20.97;28.75;101905.14;1778567;79;20895;-70
2021/05/10 05:42:56;;;;;;;1.70;1.20;;;;;;;21.16;28.43;101895.58;1778518;79;20938;-69
2021/05/10 05:45:26;;;;;;;1.45;1.17;;;;;;;21.34;27.84;101885.99;1778527;80;22379;-69
2021/05/10 05:47:54;;;;;;;3.70;1.40;;;;;;;21.40;27.34;101881.47;1778522;80;21499;-70
2021/05/10 05:50:23;;;;;;;1.75;1.20;;;;;;;21.50;28.40;101882.41;1778469;79;20986;-69
2021/05/10 05:52:53;;;;;;;3.02;1.40;;;;;;;21.54;27.75;101884.31;1778113;80;20986;-70
2021/05/10 05:55:21;;;;;;;7.87;1.32;;;;;;;21.69;27.42;101884.81;1728570;80;20982;-69
2021/05/10 05:57:49;;;;;;;1.82;1.37;;;;;;;21.84;26.93;101884.81;1778418;79;21434;-69
2021/05/10 06:00:19;;;;;;;1.37;1.22;;;;;;;21.94;25.86;101879.02;1778433;80;20950;-69
2021/05/10 06:02:47;;;;;;;3.45;0.98;;;;;;;22.08;25.44;101884.97;1778492;80;20963;-69
2021/05/10 06:05:16;;;;;;;1.65;1.22;;;;;;;22.16;25.21;101877.09;1778481;79;20943;-69
2021/05/10 06:07:47;;;;;;;1.50;1.05;;;;;;;22.31;25.48;101874.41;1777796;80;20930;-68
2021/05/10 06:10:21;;;;;;;1.15;1.05;;;;;;;22.49;25.58;101865.72;1778480;79;21485;-68
2021/05/10 06:12:51;;;;;;;1.52;1.40;;;;;;;22.71;24.04;101860.59;1773543;80;20986;-68
2021/05/10 06:15:21;;;;;;;4.85;1.45;;;;;;;22.75;23.04;101864.18;1769964;80;21015;-67
2021/05/10 06:17:49;;;;;;;2.00;1.80;;;;;;;22.86;23.02;101870.37;1769903;80;21042;-69
2021/05/10 06:20:18;;;;;;;6.03;1.72;;;;;;;22.88;23.02;101867.91;1769985;79;21049;-68
2021/05/10 06:22:48;;;;;;;1.20;1.10;;;;;;;22.95;23.23;101866.84;1769814;81;21323;-68
2021/05/10 06:25:16;;;;;;;2.05;1.35;;;;;;;23.18;23.68;101858.03;1769933;79;20915;-68
2021/05/10 06:27:45;;;;;;;2.30;1.25;;;;;;;23.32;22.87;101862.07;1770023;81;20954;-68
2021/05/10 06:30:14;;;;;;;2.40;1.40;;;;;;;23.34;22.53;101853.41;1770034;81;20959;-68
2021/05/10 06:32:43;;;;;;;2.60;0.93;;;;;;;23.36;22.82;101846.91;1770019;81;20991;-68
2021/05/10 06:35:13;;;;;;;1.72;1.12;;;;;;;23.32;22.22;101847.34;1769952;81;21194;-70
2021/05/10 06:37:41;;;;;;;0.93;0.93;;;;;;;23.37;22.48;101845.09;1769994;79;21014;-70
2021/05/10 06:40:10;;;;;;;2.75;0.88;;;;;;;23.51;22.69;101826.37;1769911;80;21026;-68
2021/05/10 06:42:39;;;;;;;2.70;0.90;;;;;;;23.45;22.31;101832.30;1769956;81;21038;-71
2021/05/10 06:45:09;;;;;;;0.85;0.70;;;;;;;23.56;22.21;101827.59;1770029;79;20923;-74
2021/05/10 06:47:41;;;;;;;4.53;1.25;;;;;;;23.54;21.83;101824.25;1769976;81;21354;-70
2021/05/10 06:50:10;;;;;;;1.57;1.40;;;;;;;23.58;23.12;101824.28;1770271;79;20996;-70
2021/05/10 06:52:39;;;;;;;0.60;0.60;;;;;;;23.83;22.11;101813.89;1769917;81;21748;-68
2021/05/10 06:55:08;;;;;;;2.22;0.80;;;;;;;23.89;22.80;101809.78;1770015;81;21333;-75
2021/05/10 06:57:37;;;;;;;0.62;0.50;;;;;;;24.15;21.21;101800.52;1769696;80;20946;-69
2021/05/10 07:00:07;;;;;;;1.05;0.98;;;;;;;23.86;19.38;101807.42;1769864;79;21367;-70
2021/05/10 07:02:37;;;;;;;3.08;1.10;;;;;;;23.71;19.84;101805.70;1769879;81;21038;-69
2021/05/10 07:05:06;;;;;;;1.22;0.88;;;;;;;23.54;20.12;101804.17;1769923;79;20915;-70
2021/05/10 07:07:34;;;;;;;2.98;1.15;;;;;;;23.44;19.41;101800.68;1769851;80;20947;-70
2021/05/10 07:10:05;;;;;;;0.98;0.60;;;;;;;23.41;19.50;101797.44;1769983;81;20943;-72
2021/05/10 07:12:34;;;;;;;1.00;0.80;;;;;;;23.16;19.14;101791.76;1769832;80;21356;-68
2021/05/10 07:15:02;;;;;;;4.10;1.05;;;;;;;22.95;19.46;101799.97;1769828;81;20996;-66
2021/05/10 07:17:31;;;;;;;2.02;0.57;;;;;;;22.95;20.05;101777.22;1769959;81;20935;-67
2021/05/10 07:19:59;;;;;;;4.20;0.70;;;;;;;23.07;20.04;101786.78;1769725;81;20994;-68
2021/05/10 07:22:27;;;;;;;1.42;0.60;;;;;;;23.17;21.93;101785.44;1769736;81;20927;-67
2021/05/10 07:24:56;;;;;;;1.75;0.65;;;;;;;23.35;20.66;101774.30;1769951;81;21362;-66
2021/05/10 07:27:24;;;;;;;1.12;0.75;;;;;;;23.46;20.66;101789.33;1769992;80;21365;-67
2021/05/10 07:29:53;;;;;;;6.10;0.95;;;;;;;23.68;20.18;101777.38;1769913;81;21022;-66
2021/05/10 07:32:21;;;;;;;3.70;0.82;;;;;;;23.65;20.03;101784.86;1769832;81;20920;-68
2021/05/10 07:34:50;;;;;;;1.37;1.10;;;;;;;23.51;20.67;101776.33;1769915;79;20986;-67
2021/05/10 07:37:19;;;;;;;3.90;0.90;;;;;;;23.49;20.38;101779.65;1769906;81;21148;-66
2021/05/10 07:39:49;;;;;;;0.90;0.90;;;;;;;23.62;20.01;101774.45;1769763;79;21037;-70
2021/05/10 07:42:17;;;;;;;0.88;0.68;;;;;;;23.79;19.94;101771.02;1769851;81;20950;-70
2021/05/10 07:44:46;;;;;;;0.88;0.88;;;;;;;23.98;20.61;101763.33;1769928;81;20951;-69
2021/05/10 07:47:16;;;;;;;1.22;0.93;;;;;;;24.23;20.01;101772.44;1769946;81;21507;-69
2021/05/10 07:49:44;;;;;;;1.12;1.00;;;;;;;24.41;19.91;101759.02;1769941;81;21800;-69
2021/05/10 07:52:13;;;;;;;2.30;0.82;;;;;;;24.49;20.06;101746.22;1769961;81;21365;-70
2021/05/10 07:54:41;;;;;;;0.78;0.72;;;;;;;24.49;19.46;101759.63;1770026;81;20998;-68
2021/05/10 07:57:09;;;;;;;0.88;0.65;;;;;;;24.75;20.15;101746.25;1769857;81;21034;-69
2021/05/10 07:59:38;;;;;;;3.55;0.80;;;;;;;24.91;18.88;101749.53;1769924;79;21132;-68
2021/05/10 08:02:06;;;;;;;0.80;0.62;;;;;;;24.99;18.76;101746.39;1769936;79;21364;-68
2021/05/10 08:04:34;;;;;;;1.02;0.95;;;;;;;25.09;18.98;101753.48;1769862;81;20903;-69
2021/05/10 08:07:03;;;;;;;2.45;1.00;;;;;;;25.16;18.75;101747.81;1746198;81;21018;-70
2021/05/10 08:09:33;;;;;;;1.95;0.90;;;;;;;25.15;18.80;101740.27;1739553;81;21436;-69
2021/05/10 08:12:01;;;;;;;3.50;3.17;;;;;;;25.23;19.20;101734.97;1739454;82;21444;-67
2021/05/10 08:14:29;;;;;;;0.78;0.60;;;;;;;25.31;18.97;101730.12;1746864;82;21827;-68
2021/05/10 08:16:59;;;;;;;2.90;1.32;;;;;;;25.41;18.43;101734.02;1747606;82;21061;-68
2021/05/10 08:19:28;;;;;;;1.52;0.70;;;;;;;25.37;18.65;101732.68;1747555;82;20946;-68
2021/05/10 08:22:01;;;;;;;2.33;1.02;;;;;;;25.28;18.23;101731.80;1747641;80;20943;-67
2021/05/10 08:24:29;;;;;;;2.15;0.80;;;;;;;25.13;18.74;101725.33;1747729;80;21037;-72
2021/05/10 08:26:57;;;;;;;6.50;1.30;;;;;;;25.00;19.16;101727.09;1747585;81;21341;-71
2021/05/10 08:29:26;;;;;;;0.57;0.57;;;;;;;24.93;18.26;101724.21;1747458;82;20967;-67
2021/05/10 08:31:56;;;;;;;1.85;1.02;;;;;;;24.88;18.89;101720.31;1747532;82;20955;-68
2021/05/10 08:34:25;;;;;;;2.52;0.80;;;;;;;25.06;20.38;101717.07;1747513;81;21016;-67
2021/05/10 08:36:55;;;;;;;0.68;0.65;;;;;;;25.17;18.20;101707.90;1747411;82;21384;-67
2021/05/10 08:39:23;;;;;;;1.35;0.95;;;;;;;25.02;18.68;101700.44;1747378;82;21192;-67
2021/05/10 08:41:51;;;;;;;0.75;0.68;;;;;;;24.75;18.87;101710.03;1747483;82;20994;-66
2021/05/10 08:44:20;;;;;;;4.10;0.80;;;;;;;24.56;18.87;101704.36;1747531;82;21002;-68
2021/05/10 08:46:48;;;;;;;1.65;0.80;;;;;;;24.26;18.87;101702.45;1698599;82;20915;-70
2021/05/10 08:49:22;;;;;;;0.85;0.82;;;;;;;23.92;19.92;101698.28;1747592;81;21645;-69
2021/05/10 08:51:47;;;;;;;3.00;0.70;;;;;;;23.77;20.21;101703.34;1747567;81;21468;-67
2021/05/10 08:54:25;;;;;;;1.27;0.90;;;;;;;23.86;19.73;101698.91;1747576;80;20978;-66
2021/05/10 08:56:54;;;;;;;1.25;1.02;;;;;;;24.07;20.21;101693.23;1748121;82;20955;-69
2021/05/10 08:59:24;;;;;;;1.02;0.70;;;;;;;24.07;20.23;101697.25;1748736;81;20998;-68
2021/05/10 09:02:01;;;;;;;2.75;0.80;;;;;;;24.26;19.99;101691.72;1748896;82;21026;-70
2021/05/10 09:04:37;;;;;;;1.12;0.80;;;;;;;24.33;19.78;101692.77;1747449;82;21393;-68
2021/05/10 09:07:16;;;;;;;3.58;1.05;;;;;;;24.54;19.88;101685.73;1747408;80;21915;-69
2021/05/10 09:10:06;;;;;;;0.88;0.88;;;;;;;24.74;19.59;101684.18;1747678;82;20946;-69
2021/05/10 09:12:52;;;;;;;2.15;0.90;;;;;;;24.85;19.70;101675.86;1747725;81;21602;-68
2021/05/10 09:15:30;;;;;;;3.75;1.20;;;;;;;24.89;19.44;101680.41;1747737;80;21006;-69
2021/05/10 09:18:05;;;;;;;1.22;0.80;;;;;;;24.66;19.24;101681.47;1747817;81;22279;-68
2021/05/10 09:20:41;;;;;;;2.50;0.85;;;;;;;24.51;19.36;101678.02;1747753;80;21018;-68
2021/05/10 09:23:12;;;;;;;1.32;0.90;;;;;;;24.17;19.39;101673.89;1747695;81;21018;-68
2021/05/10 09:25:42;;;;;;;3.25;1.20;;;;;;;24.14;20.08;101662.12;1747614;80;20975;-68
2021/05/10 09:28:16;;;;;;;1.12;0.90;;;;;;;24.23;19.79;101661.19;1747698;80;21013;-69
2021/05/10 09:30:50;;;;;;;1.27;0.68;;;;;;;24.27;20.18;101662.56;1747706;82;21189;-69
2021/05/10 09:33:27;;;;;;;0.90;0.85;;;;;;;24.30;19.82;101655.56;1747543;81;21013;-70
2021/05/10 09:38:41;;;;;;;5.05;1.82;;;;;;;24.39;19.32;101643.05;1782980;79;22753;-68
2021/05/10 09:41:09;;;;;;;2.27;0.98;;;;;;;24.30;19.85;101642.16;1786146;80;21527;-69
2021/05/10 09:43:42;;;;;;;2.25;1.67;;;;;;;24.34;19.94;101646.69;1785870;80;21645;-71
2021/05/10 09:46:12;;;;;;;1.60;1.15;;;;;;;24.44;19.70;101636.71;1785959;80;20918;-69
2021/05/10 09:48:45;;;;;;;0.93;0.93;;;;;;;24.71;20.53;101641.08;1781160;80;20918;-71
2021/05/10 09:51:17;;;;;;;1.95;1.02;;;;;;;24.79;19.59;101629.56;1786149;80;21018;-71
2021/05/10 09:53:50;;;;;;;1.12;0.90;;;;;;;24.66;19.05;101625.14;1786090;80;21060;-70
2021/05/10 09:56:28;;;;;;;1.60;1.22;;;;;;;24.43;18.86;101620.77;1786200;80;21325;-69
2021/05/10 09:59:02;;;;;;;15.55;1.72;;;;;;;24.32;18.98;101621.88;1785982;80;21006;-68
2021/05/10 10:01:46;;;;;;;2.45;1.10;;;;;;;24.42;19.44;101619.94;1786037;80;21038;-67
2021/05/10 10:04:17;;;;;;;0.98;0.70;;;;;;;24.64;19.91;101627.14;1786073;80;21542;-69
2021/05/10 10:06:46;;;;;;;4.03;0.90;;;;;;;24.74;19.69;101613.92;1786135;80;21460;-66
2021/05/10 10:09:14;;;;;;;0.78;0.78;;;;;;;24.83;19.50;101612.11;1786034;80;21231;-69
2021/05/10 10:11:43;;;;;;;1.32;1.00;;;;;;;24.74;19.69;101607.21;1785973;80;21729;-67
2021/05/10 10:14:13;;;;;;;2.08;1.02;;;;;;;24.86;19.12;101594.38;1786140;80;21460;-68
2021/05/10 10:16:43;;;;;;;5.20;1.47;;;;;;;25.01;19.09;101594.09;1783544;80;21029;-64
2021/05/10 10:19:12;;;;;;;2.05;1.27;;;;;;;24.87;18.55;101590.67;1786116;80;20926;-67
2021/05/10 10:21:43;;;;;;;1.35;0.95;;;;;;;24.54;19.01;101584.33;1783282;80;21207;-65
2021/05/10 10:24:10;;;;;;;0.80;0.78;;;;;;;24.37;19.50;101583.39;1785981;80;20966;-66
2021/05/10 10:26:40;;;;;;;1.20;0.88;;;;;;;24.31;19.72;101583.50;1752587;80;20923;-68
2021/05/10 10:29:13;;;;;;;1.30;1.20;;;;;;;24.09;19.33;101576.83;1786089;80;21369;-65
2021/05/10 10:31:46;;;;;;;3.25;1.10;;;;;;;23.82;19.53;101574.30;1786018;80;20927;-66
2021/05/10 10:34:30;;;;;;;0.65;0.65;;;;;;;23.68;20.02;101566.27;1786080;80;21402;-67
2021/05/10 10:37:00;;;;;;;1.55;1.05;;;;;;;23.77;20.14;101553.34;1786632;80;21101;-67
2021/05/10 10:39:30;;;;;;;1.07;0.78;;;;;;;23.94;19.78;101544.91;1791660;80;21373;-68
2021/05/10 10:42:09;;;;;;;1.50;1.10;;;;;;;24.06;19.69;101552.20;1791492;80;20942;-70
2021/05/10 10:44:43;;;;;;;1.65;1.20;;;;;;;24.19;19.29;101539.22;1791603;80;20955;-70
2021/05/10 10:47:15;;;;;;;2.83;0.88;;;;;;;24.13;19.47;101539.84;1791726;80;21376;-68
2021/05/10 10:49:45;;;;;;;1.07;0.83;;;;;;;24.06;18.96;101534.28;1787815;80;21495;-68
2021/05/10 10:52:28;;;;;;;2.12;0.95;;;;;;;24.03;19.30;101531.06;1790997;80;21442;-71
2021/05/10 10:55:24;;;;;;;2.00;1.00;;;;;;;24.13;19.66;101531.30;1789961;80;20907;-70
2021/05/10 10:57:55;;;;;;;2.45;0.98;;;;;;;24.34;19.51;101511.30;1791001;80;20938;-73
2021/05/10 11:00:23;;;;;;;2.65;1.17;;;;;;;24.52;19.41;101512.09;1791037;80;22691;-69
2021/05/10 11:02:54;;;;;;;1.15;1.05;;;;;;;24.68;19.66;101513.99;1790903;80;20970;-70
2021/05/10 11:05:27;;;;;;;1.45;0.68;;;;;;;24.79;19.38;101502.95;1790962;80;20950;-67
2021/05/10 11:08:04;;;;;;;1.92;1.10;;;;;;;24.90;19.36;101497.78;1791186;80;20919;-66
2021/05/10 11:10:50;;;;;;;3.92;0.88;;;;;;;24.84;19.06;101505.14;1790871;80;20914;-66
2021/05/10 11:13:33;;;;;;;1.45;1.00;;;;;;;24.76;18.85;101498.41;1790990;80;21148;-68
2021/05/10 11:16:14;;;;;;;0.70;0.70;;;;;;;24.55;19.08;101489.47;1790841;80;21049;-66
2021/05/10 11:18:55;;;;;;;3.37;1.37;;;;;;;24.52;19.10;101492.46;1790940;80;21026;-66
2021/05/10 11:21:29;;;;;;;1.72;0.90;;;;;;;24.48;18.67;101487.08;1790876;80;21037;-64
2021/05/10 11:24:12;;;;;;;3.50;1.10;;;;;;;24.28;18.66;101488.66;1790990;80;20899;-66
2021/05/10 11:26:52;;;;;;;3.62;1.07;;;;;;;24.02;18.80;101490.54;1790944;80;21207;-67
2021/05/10 11:29:33;;;;;;;1.02;0.90;;;;;;;23.79;19.46;101479.02;1790876;80;21053;-65
2021/05/10 11:32:21;;;;;;;2.20;0.90;;;;;;;23.50;20.23;101480.13;1790921;80;21388;-66
2021/05/10 11:34:51;;;;;;;2.17;1.00;;;;;;;23.08;19.74;101470.06;1791024;80;20911;-65
2021/05/10 11:37:25;;;;;;;4.12;1.40;;;;;;;22.68;20.33;101468.63;1763119;80;21097;-67
2021/05/10 11:39:57;;;;;;;1.35;0.93;;;;;;;22.28;21.05;101482.36;1791003;80;21368;-66
2021/05/10 11:42:27;;;;;;;2.25;1.00;;;;;;;22.09;20.72;101480.56;1790875;80;21022;-66
2021/05/10 11:45:00;;;;;;;4.35;1.20;;;;;;;21.85;21.72;101465.86;1791002;80;21357;-66
2021/05/10 11:47:30;;;;;;;1.30;1.13;;;;;;;21.65;21.97;101451.72;1790777;80;20939;-65
2021/05/10 11:50:04;;;;;;;2.33;1.00;;;;;;;21.51;22.71;101445.52;1763243;80;20939;-64
2021/05/10 11:52:32;;;;;;;2.85;1.00;;;;;;;21.41;22.98;101452.21;1790991;80;21437;-67
2021/05/10 11:55:03;;;;;;;3.40;1.05;;;;;;;21.31;22.75;101454.00;1790822;80;20938;-66